sensor_id;sensor_type;location;lat;lon;timestamp;temperature;humidity
68235;DHT22;55052;52.056;5.296;2022-10-16T00:00:55;14.40;81.80
68235;DHT22;55052;52.056;5.296;2022-10-16T00:03:22;14.40;82.20
68235;DHT22;55052;52.056;5.296;2022-10-16T00:05:59;14.30;83.00
68235;DHT22;55052;52.056;5.296;2022-10-16T00:08:27;14.30;82.10
68235;DHT22;55052;52.056;5.296;2022-10-16T00:11:02;14.30;82.10
68235;DHT22;55052;52.056;5.296;2022-10-16T00:13:30;14.30;82.30
68235;DHT22;55052;52.056;5.296;2022-10-16T00:15:58;14.30;82.30
68235;DHT22;55052;52.056;5.296;2022-10-16T00:18:27;14.30;82.40
68235;DHT22;55052;52.056;5.296;2022-10-16T00:20:54;14.30;82.40
68235;DHT22;55052;52.056;5.296;2022-10-16T00:23:25;14.30;82.40
68235;DHT22;55052;52.056;5.296;2022-10-16T00:26:01;14.30;82.60
68235;DHT22;55052;52.056;5.296;2022-10-16T00:28:28;14.30;82.60
68235;DHT22;55052;52.056;5.296;2022-10-16T00:30:55;14.30;82.60
68235;DHT22;55052;52.056;5.296;2022-10-16T00:33:22;14.30;82.60
68235;DHT22;55052;52.056;5.296;2022-10-16T00:35:49;14.30;82.70
68235;DHT22;55052;52.056;5.296;2022-10-16T00:38:16;14.30;82.80
68235;DHT22;55052;52.056;5.296;2022-10-16T00:40:43;14.30;82.80
68235;DHT22;55052;52.056;5.296;2022-10-16T00:43:32;14.30;82.90
68235;DHT22;55052;52.056;5.296;2022-10-16T00:46:00;14.30;82.80
68235;DHT22;55052;52.056;5.296;2022-10-16T00:48:27;14.30;82.80
68235;DHT22;55052;52.056;5.296;2022-10-16T00:50:54;14.30;82.90
68235;DHT22;55052;52.056;5.296;2022-10-16T00:53:21;14.30;83.80
68235;DHT22;55052;52.056;5.296;2022-10-16T00:55:48;14.30;83.00
68235;DHT22;55052;52.056;5.296;2022-10-16T00:58:14;14.30;83.00
68235;DHT22;55052;52.056;5.296;2022-10-16T01:00:41;14.30;83.00
68235;DHT22;55052;52.056;5.296;2022-10-16T01:03:31;14.30;83.10
68235;DHT22;55052;52.056;5.296;2022-10-16T01:09:10;14.40;83.30
68235;DHT22;55052;52.056;5.296;2022-10-16T01:12:01;14.40;83.40
68235;DHT22;55052;52.056;5.296;2022-10-16T01:17:18;14.40;83.40
68235;DHT22;55052;52.056;5.296;2022-10-16T01:28:23;14.50;83.70
68235;DHT22;55052;52.056;5.296;2022-10-16T01:30:53;14.50;83.70
68235;DHT22;55052;52.056;5.296;2022-10-16T01:33:34;14.50;83.70
68235;DHT22;55052;52.056;5.296;2022-10-16T01:36:03;14.60;83.70
68235;DHT22;55052;52.056;5.296;2022-10-16T01:38:38;14.60;83.70
68235;DHT22;55052;52.056;5.296;2022-10-16T01:44:04;14.60;83.80
68235;DHT22;55052;52.056;5.296;2022-10-16T01:46:36;14.60;83.80
68235;DHT22;55052;52.056;5.296;2022-10-16T01:49:03;14.60;83.90
68235;DHT22;55052;52.056;5.296;2022-10-16T01:51:30;14.70;84.00
68235;DHT22;55052;52.056;5.296;2022-10-16T01:54:00;14.60;83.90
68235;DHT22;55052;52.056;5.296;2022-10-16T01:56:29;14.70;84.00
68235;DHT22;55052;52.056;5.296;2022-10-16T01:59:05;14.70;84.80
68235;DHT22;55052;52.056;5.296;2022-10-16T02:01:35;14.70;84.10
68235;DHT22;55052;52.056;5.296;2022-10-16T02:07:00;14.70;83.90
68235;DHT22;55052;52.056;5.296;2022-10-16T02:09:27;14.70;84.00
68235;DHT22;55052;52.056;5.296;2022-10-16T02:11:55;14.70;84.00
68235;DHT22;55052;52.056;5.296;2022-10-16T02:14:23;14.70;84.80
68235;DHT22;55052;52.056;5.296;2022-10-16T02:16:51;14.80;84.00
68235;DHT22;55052;52.056;5.296;2022-10-16T02:19:18;14.70;83.80
68235;DHT22;55052;52.056;5.296;2022-10-16T02:21:56;14.80;83.90
68235;DHT22;55052;52.056;5.296;2022-10-16T02:24:33;14.70;83.90
68235;DHT22;55052;52.056;5.296;2022-10-16T02:27:11;14.80;83.90
68235;DHT22;55052;52.056;5.296;2022-10-16T02:29:45;14.70;83.90
68235;DHT22;55052;52.056;5.296;2022-10-16T02:32:17;14.80;84.70
68235;DHT22;55052;52.056;5.296;2022-10-16T02:34:48;14.80;84.80
68235;DHT22;55052;52.056;5.296;2022-10-16T02:37:16;14.80;83.90
68235;DHT22;55052;52.056;5.296;2022-10-16T02:39:44;14.70;83.90
68235;DHT22;55052;52.056;5.296;2022-10-16T02:42:13;14.80;83.90
68235;DHT22;55052;52.056;5.296;2022-10-16T02:44:40;14.80;83.90
68235;DHT22;55052;52.056;5.296;2022-10-16T02:47:06;14.70;83.90
68235;DHT22;55052;52.056;5.296;2022-10-16T02:49:33;14.70;84.00
68235;DHT22;55052;52.056;5.296;2022-10-16T02:52:00;14.70;84.00
68235;DHT22;55052;52.056;5.296;2022-10-16T02:54:26;14.70;84.00
68235;DHT22;55052;52.056;5.296;2022-10-16T02:56:53;14.70;84.00
68235;DHT22;55052;52.056;5.296;2022-10-16T02:59:20;14.70;84.10
68235;DHT22;55052;52.056;5.296;2022-10-16T03:01:46;14.70;84.10
68235;DHT22;55052;52.056;5.296;2022-10-16T03:04:13;14.70;84.10
68235;DHT22;55052;52.056;5.296;2022-10-16T03:06:40;14.70;84.20
68235;DHT22;55052;52.056;5.296;2022-10-16T03:09:06;14.70;84.20
68235;DHT22;55052;52.056;5.296;2022-10-16T03:11:33;14.70;84.30
68235;DHT22;55052;52.056;5.296;2022-10-16T03:14:00;14.70;84.40
68235;DHT22;55052;52.056;5.296;2022-10-16T03:16:26;14.70;84.40
68235;DHT22;55052;52.056;5.296;2022-10-16T03:18:53;14.60;84.40
68235;DHT22;55052;52.056;5.296;2022-10-16T03:21:20;14.70;84.50
68235;DHT22;55052;52.056;5.296;2022-10-16T03:23:46;14.70;84.50
68235;DHT22;55052;52.056;5.296;2022-10-16T03:26:13;14.60;84.50
68235;DHT22;55052;52.056;5.296;2022-10-16T03:28:40;14.70;84.60
68235;DHT22;55052;52.056;5.296;2022-10-16T03:31:06;14.70;84.70
68235;DHT22;55052;52.056;5.296;2022-10-16T03:33:34;14.60;84.60
68235;DHT22;55052;52.056;5.296;2022-10-16T03:36:01;14.60;84.60
68235;DHT22;55052;52.056;5.296;2022-10-16T03:38:27;14.60;84.60
68235;DHT22;55052;52.056;5.296;2022-10-16T03:40:54;14.60;84.60
68235;DHT22;55052;52.056;5.296;2022-10-16T03:43:21;14.60;84.70
68235;DHT22;55052;52.056;5.296;2022-10-16T03:45:49;14.60;84.70
68235;DHT22;55052;52.056;5.296;2022-10-16T03:48:16;14.60;84.70
68235;DHT22;55052;52.056;5.296;2022-10-16T03:50:42;14.60;84.70
68235;DHT22;55052;52.056;5.296;2022-10-16T03:53:09;14.60;84.80
68235;DHT22;55052;52.056;5.296;2022-10-16T03:55:36;14.60;84.80
68235;DHT22;55052;52.056;5.296;2022-10-16T03:58:03;14.60;84.80
68235;DHT22;55052;52.056;5.296;2022-10-16T04:00:29;14.50;84.80
68235;DHT22;55052;52.056;5.296;2022-10-16T04:02:56;14.50;84.80
68235;DHT22;55052;52.056;5.296;2022-10-16T04:05:22;14.50;84.80
68235;DHT22;55052;52.056;5.296;2022-10-16T04:07:49;14.50;84.80
68235;DHT22;55052;52.056;5.296;2022-10-16T04:10:16;14.50;84.90
68235;DHT22;55052;52.056;5.296;2022-10-16T04:12:42;14.50;84.90
68235;DHT22;55052;52.056;5.296;2022-10-16T04:15:09;14.50;84.90
68235;DHT22;55052;52.056;5.296;2022-10-16T04:17:36;14.50;84.90
68235;DHT22;55052;52.056;5.296;2022-10-16T04:20:03;14.50;85.00
68235;DHT22;55052;52.056;5.296;2022-10-16T04:22:30;14.50;85.00
68235;DHT22;55052;52.056;5.296;2022-10-16T04:24:56;14.40;85.00
68235;DHT22;55052;52.056;5.296;2022-10-16T04:27:23;14.40;85.10
68235;DHT22;55052;52.056;5.296;2022-10-16T04:29:51;14.40;85.20
68235;DHT22;55052;52.056;5.296;2022-10-16T04:32:17;14.40;85.20
68235;DHT22;55052;52.056;5.296;2022-10-16T04:34:44;14.40;85.20
68235;DHT22;55052;52.056;5.296;2022-10-16T04:37:11;14.40;85.30
68235;DHT22;55052;52.056;5.296;2022-10-16T04:39:37;14.40;85.40
68235;DHT22;55052;52.056;5.296;2022-10-16T04:42:04;14.40;85.40
68235;DHT22;55052;52.056;5.296;2022-10-16T04:44:31;14.40;85.50
68235;DHT22;55052;52.056;5.296;2022-10-16T04:46:57;14.30;85.50
68235;DHT22;55052;52.056;5.296;2022-10-16T04:49:24;14.30;85.50
68235;DHT22;55052;52.056;5.296;2022-10-16T04:51:51;14.30;85.50
68235;DHT22;55052;52.056;5.296;2022-10-16T04:54:17;14.30;85.60
68235;DHT22;55052;52.056;5.296;2022-10-16T04:56:44;14.30;85.60
68235;DHT22;55052;52.056;5.296;2022-10-16T04:59:14;14.30;85.60
68235;DHT22;55052;52.056;5.296;2022-10-16T05:01:41;14.30;85.60
68235;DHT22;55052;52.056;5.296;2022-10-16T05:04:08;14.30;85.70
68235;DHT22;55052;52.056;5.296;2022-10-16T05:06:35;14.30;85.60
68235;DHT22;55052;52.056;5.296;2022-10-16T05:09:02;14.30;85.70
68235;DHT22;55052;52.056;5.296;2022-10-16T05:11:29;14.30;86.50
68235;DHT22;55052;52.056;5.296;2022-10-16T05:13:56;14.30;85.70
68235;DHT22;55052;52.056;5.296;2022-10-16T05:16:23;14.30;85.80
68235;DHT22;55052;52.056;5.296;2022-10-16T05:18:51;14.20;85.80
68235;DHT22;55052;52.056;5.296;2022-10-16T05:21:21;14.20;85.80
68235;DHT22;55052;52.056;5.296;2022-10-16T05:23:48;14.20;85.80
68235;DHT22;55052;52.056;5.296;2022-10-16T05:26:15;14.20;85.90
68235;DHT22;55052;52.056;5.296;2022-10-16T05:28:42;14.20;85.90
68235;DHT22;55052;52.056;5.296;2022-10-16T05:31:09;14.20;86.00
68235;DHT22;55052;52.056;5.296;2022-10-16T05:33:37;14.20;86.00
68235;DHT22;55052;52.056;5.296;2022-10-16T05:36:06;14.20;86.00
68235;DHT22;55052;52.056;5.296;2022-10-16T05:38:34;14.10;86.10
68235;DHT22;55052;52.056;5.296;2022-10-16T05:41:01;14.10;86.20
68235;DHT22;55052;52.056;5.296;2022-10-16T05:43:29;14.10;86.30
68235;DHT22;55052;52.056;5.296;2022-10-16T05:46:00;14.10;86.30
68235;DHT22;55052;52.056;5.296;2022-10-16T05:48:26;14.10;86.40
68235;DHT22;55052;52.056;5.296;2022-10-16T05:51:05;14.10;86.40
68235;DHT22;55052;52.056;5.296;2022-10-16T05:53:34;14.10;86.60
68235;DHT22;55052;52.056;5.296;2022-10-16T05:56:03;14.10;86.60
68235;DHT22;55052;52.056;5.296;2022-10-16T05:58:35;14.10;86.70
68235;DHT22;55052;52.056;5.296;2022-10-16T06:01:11;14.10;86.70
68235;DHT22;55052;52.056;5.296;2022-10-16T06:03:39;14.10;86.70
68235;DHT22;55052;52.056;5.296;2022-10-16T06:08:38;14.10;86.70
68235;DHT22;55052;52.056;5.296;2022-10-16T06:11:07;14.10;86.80
68235;DHT22;55052;52.056;5.296;2022-10-16T06:13:35;14.20;86.80
68235;DHT22;55052;52.056;5.296;2022-10-16T06:16:02;14.20;86.90
68235;DHT22;55052;52.056;5.296;2022-10-16T06:18:29;14.20;86.90
68235;DHT22;55052;52.056;5.296;2022-10-16T06:20:57;14.20;86.90
68235;DHT22;55052;52.056;5.296;2022-10-16T06:23:24;14.20;86.90
68235;DHT22;55052;52.056;5.296;2022-10-16T06:25:51;14.20;86.90
68235;DHT22;55052;52.056;5.296;2022-10-16T06:28:17;14.20;87.00
68235;DHT22;55052;52.056;5.296;2022-10-16T06:30:44;14.30;87.00
68235;DHT22;55052;52.056;5.296;2022-10-16T06:33:12;14.20;87.10
68235;DHT22;55052;52.056;5.296;2022-10-16T06:35:39;14.20;87.10
68235;DHT22;55052;52.056;5.296;2022-10-16T06:38:06;14.30;87.10
68235;DHT22;55052;52.056;5.296;2022-10-16T06:40:33;14.30;87.10
68235;DHT22;55052;52.056;5.296;2022-10-16T06:42:59;14.30;87.10
68235;DHT22;55052;52.056;5.296;2022-10-16T06:45:26;14.30;87.10
68235;DHT22;55052;52.056;5.296;2022-10-16T06:47:53;14.30;87.10
68235;DHT22;55052;52.056;5.296;2022-10-16T06:50:19;14.30;87.10
68235;DHT22;55052;52.056;5.296;2022-10-16T06:52:46;14.30;87.20
68235;DHT22;55052;52.056;5.296;2022-10-16T06:55:13;14.30;87.10
68235;DHT22;55052;52.056;5.296;2022-10-16T06:57:41;14.30;87.10
68235;DHT22;55052;52.056;5.296;2022-10-16T07:00:08;14.30;87.10
68235;DHT22;55052;52.056;5.296;2022-10-16T07:02:34;14.40;87.20
68235;DHT22;55052;52.056;5.296;2022-10-16T07:05:01;14.40;87.10
68235;DHT22;55052;52.056;5.296;2022-10-16T07:07:28;14.40;87.20
68235;DHT22;55052;52.056;5.296;2022-10-16T07:09:55;14.40;87.20
68235;DHT22;55052;52.056;5.296;2022-10-16T07:12:21;14.40;88.30
68235;DHT22;55052;52.056;5.296;2022-10-16T07:14:49;14.40;87.60
68235;DHT22;55052;52.056;5.296;2022-10-16T07:17:17;14.40;87.70
68235;DHT22;55052;52.056;5.296;2022-10-16T07:19:44;14.40;87.80
68235;DHT22;55052;52.056;5.296;2022-10-16T07:22:11;14.40;87.80
68235;DHT22;55052;52.056;5.296;2022-10-16T07:24:38;14.40;87.80
68235;DHT22;55052;52.056;5.296;2022-10-16T07:27:04;14.40;87.80
68235;DHT22;55052;52.056;5.296;2022-10-16T07:29:31;14.40;87.70
68235;DHT22;55052;52.056;5.296;2022-10-16T07:31:58;14.40;87.80
68235;DHT22;55052;52.056;5.296;2022-10-16T07:34:25;14.40;88.00
68235;DHT22;55052;52.056;5.296;2022-10-16T07:36:52;14.50;88.10
68235;DHT22;55052;52.056;5.296;2022-10-16T07:39:19;14.50;88.20
68235;DHT22;55052;52.056;5.296;2022-10-16T07:41:46;14.50;88.20
68235;DHT22;55052;52.056;5.296;2022-10-16T07:44:13;14.50;88.30
68235;DHT22;55052;52.056;5.296;2022-10-16T07:46:39;14.50;88.30
68235;DHT22;55052;52.056;5.296;2022-10-16T07:49:06;14.60;88.40
68235;DHT22;55052;52.056;5.296;2022-10-16T07:51:33;14.60;88.20
68235;DHT22;55052;52.056;5.296;2022-10-16T07:53:59;14.60;88.20
68235;DHT22;55052;52.056;5.296;2022-10-16T07:56:26;14.60;88.20
68235;DHT22;55052;52.056;5.296;2022-10-16T07:58:53;14.60;88.20
68235;DHT22;55052;52.056;5.296;2022-10-16T08:01:20;14.70;88.40
68235;DHT22;55052;52.056;5.296;2022-10-16T08:03:49;14.60;88.30
68235;DHT22;55052;52.056;5.296;2022-10-16T08:06:18;14.70;88.30
68235;DHT22;55052;52.056;5.296;2022-10-16T08:08:50;14.70;88.40
68235;DHT22;55052;52.056;5.296;2022-10-16T08:11:17;14.80;88.40
68235;DHT22;55052;52.056;5.296;2022-10-16T08:13:44;14.80;88.20
68235;DHT22;55052;52.056;5.296;2022-10-16T08:16:10;14.80;87.90
68235;DHT22;55052;52.056;5.296;2022-10-16T08:18:38;14.90;87.90
68235;DHT22;55052;52.056;5.296;2022-10-16T08:21:06;14.90;87.90
68235;DHT22;55052;52.056;5.296;2022-10-16T08:23:34;15.00;87.70
68235;DHT22;55052;52.056;5.296;2022-10-16T08:26:06;15.00;87.40
68235;DHT22;55052;52.056;5.296;2022-10-16T08:28:33;15.10;87.60
68235;DHT22;55052;52.056;5.296;2022-10-16T08:31:12;15.10;87.50
68235;DHT22;55052;52.056;5.296;2022-10-16T08:33:41;15.20;87.30
68235;DHT22;55052;52.056;5.296;2022-10-16T08:36:10;15.20;87.30
68235;DHT22;55052;52.056;5.296;2022-10-16T08:38:37;15.20;87.20
68235;DHT22;55052;52.056;5.296;2022-10-16T08:43:50;15.30;86.80
68235;DHT22;55052;52.056;5.296;2022-10-16T08:48:54;15.40;86.60
68235;DHT22;55052;52.056;5.296;2022-10-16T08:51:29;15.50;86.40
68235;DHT22;55052;52.056;5.296;2022-10-16T08:54:34;15.50;86.20
68235;DHT22;55052;52.056;5.296;2022-10-16T08:56:54;15.60;86.10
68235;DHT22;55052;52.056;5.296;2022-10-16T08:59:21;15.60;86.00
68235;DHT22;55052;52.056;5.296;2022-10-16T09:01:50;15.60;85.90
68235;DHT22;55052;52.056;5.296;2022-10-16T09:06:56;15.70;85.60
68235;DHT22;55052;52.056;5.296;2022-10-16T09:09:49;15.80;85.50
68235;DHT22;55052;52.056;5.296;2022-10-16T09:23:17;16.00;85.40
68235;DHT22;55052;52.056;5.296;2022-10-16T09:25:46;16.10;85.10
68235;DHT22;55052;52.056;5.296;2022-10-16T09:28:14;16.20;84.70
68235;DHT22;55052;52.056;5.296;2022-10-16T09:30:41;16.30;84.40
68235;DHT22;55052;52.056;5.296;2022-10-16T09:33:10;16.30;84.20
68235;DHT22;55052;52.056;5.296;2022-10-16T09:35:45;16.40;83.90
68235;DHT22;55052;52.056;5.296;2022-10-16T09:38:30;16.40;83.20
68235;DHT22;55052;52.056;5.296;2022-10-16T09:43:49;16.50;83.10
68235;DHT22;55052;52.056;5.296;2022-10-16T09:46:30;16.60;82.80
68235;DHT22;55052;52.056;5.296;2022-10-16T09:48:59;16.60;82.40
68235;DHT22;55052;52.056;5.296;2022-10-16T09:51:29;16.70;82.10
68235;DHT22;55052;52.056;5.296;2022-10-16T09:54:01;16.70;82.10
68235;DHT22;55052;52.056;5.296;2022-10-16T09:56:33;16.70;81.40
68235;DHT22;55052;52.056;5.296;2022-10-16T09:59:22;16.80;81.50
68235;DHT22;55052;52.056;5.296;2022-10-16T10:01:54;16.80;81.80
68235;DHT22;55052;52.056;5.296;2022-10-16T10:04:25;16.90;81.40
68235;DHT22;55052;52.056;5.296;2022-10-16T10:06:56;17.00;81.20
68235;DHT22;55052;52.056;5.296;2022-10-16T10:09:28;17.00;81.20
68235;DHT22;55052;52.056;5.296;2022-10-16T10:12:03;17.10;80.90
68235;DHT22;55052;52.056;5.296;2022-10-16T10:14:37;17.10;80.20
68235;DHT22;55052;52.056;5.296;2022-10-16T10:17:25;17.20;80.50
68235;DHT22;55052;52.056;5.296;2022-10-16T10:20:00;17.30;79.20
68235;DHT22;55052;52.056;5.296;2022-10-16T10:22:45;17.30;79.20
68235;DHT22;55052;52.056;5.296;2022-10-16T10:25:26;17.30;79.40
68235;DHT22;55052;52.056;5.296;2022-10-16T10:28:20;17.40;79.50
68235;DHT22;55052;52.056;5.296;2022-10-16T10:33:59;17.50;78.10
68235;DHT22;55052;52.056;5.296;2022-10-16T10:36:37;17.50;77.10
68235;DHT22;55052;52.056;5.296;2022-10-16T10:47:33;17.70;76.10
68235;DHT22;55052;52.056;5.296;2022-10-16T10:50:12;17.80;76.60
68235;DHT22;55052;52.056;5.296;2022-10-16T10:52:53;17.80;76.40
68235;DHT22;55052;52.056;5.296;2022-10-16T10:58:55;18.00;75.00
68235;DHT22;55052;52.056;5.296;2022-10-16T11:06:44;18.10;74.90
68235;DHT22;55052;52.056;5.296;2022-10-16T11:09:30;18.20;75.30
68235;DHT22;55052;52.056;5.296;2022-10-16T11:15:18;18.20;74.60
68235;DHT22;55052;52.056;5.296;2022-10-16T11:17:42;18.20;74.80
68235;DHT22;55052;52.056;5.296;2022-10-16T11:20:29;18.30;74.10
68235;DHT22;55052;52.056;5.296;2022-10-16T11:23:30;18.30;73.70
68235;DHT22;55052;52.056;5.296;2022-10-16T11:26:02;18.40;72.80
68235;DHT22;55052;52.056;5.296;2022-10-16T11:28:38;18.40;73.30
68235;DHT22;55052;52.056;5.296;2022-10-16T11:31:43;18.40;72.10
68235;DHT22;55052;52.056;5.296;2022-10-16T11:34:32;18.40;71.00
68235;DHT22;55052;52.056;5.296;2022-10-16T11:37:16;18.30;70.00
68235;DHT22;55052;52.056;5.296;2022-10-16T11:39:44;18.30;68.30
68235;DHT22;55052;52.056;5.296;2022-10-16T11:42:16;18.20;69.00
68235;DHT22;55052;52.056;5.296;2022-10-16T11:45:03;18.10;69.10
68235;DHT22;55052;52.056;5.296;2022-10-16T11:47:43;18.10;69.40
68235;DHT22;55052;52.056;5.296;2022-10-16T11:55:39;18.20;69.50
68235;DHT22;55052;52.056;5.296;2022-10-16T11:58:41;18.20;69.30
68235;DHT22;55052;52.056;5.296;2022-10-16T12:01:31;18.30;68.10
68235;DHT22;55052;52.056;5.296;2022-10-16T12:09:25;18.30;67.90
68235;DHT22;55052;52.056;5.296;2022-10-16T12:11:53;18.40;67.90
68235;DHT22;55052;52.056;5.296;2022-10-16T12:16:57;18.50;67.60
68235;DHT22;55052;52.056;5.296;2022-10-16T12:19:29;18.50;66.90
68235;DHT22;55052;52.056;5.296;2022-10-16T12:21:59;18.50;65.90
68235;DHT22;55052;52.056;5.296;2022-10-16T12:24:37;18.50;66.00
68235;DHT22;55052;52.056;5.296;2022-10-16T12:27:06;18.50;66.40
68235;DHT22;55052;52.056;5.296;2022-10-16T12:29:46;18.60;66.40
68235;DHT22;55052;52.056;5.296;2022-10-16T12:32:40;18.60;66.00
68235;DHT22;55052;52.056;5.296;2022-10-16T12:35:27;18.60;64.10
68235;DHT22;55052;52.056;5.296;2022-10-16T12:38:05;18.60;64.80
68235;DHT22;55052;52.056;5.296;2022-10-16T12:40:34;18.60;65.20
68235;DHT22;55052;52.056;5.296;2022-10-16T12:46:04;18.60;64.10
68235;DHT22;55052;52.056;5.296;2022-10-16T12:48:46;18.70;65.40
68235;DHT22;55052;52.056;5.296;2022-10-16T12:54:20;18.70;65.50
68235;DHT22;55052;52.056;5.296;2022-10-16T12:57:13;18.70;65.80
68235;DHT22;55052;52.056;5.296;2022-10-16T13:03:11;18.80;66.30
68235;DHT22;55052;52.056;5.296;2022-10-16T13:06:03;18.80;66.40
68235;DHT22;55052;52.056;5.296;2022-10-16T13:09:05;18.90;66.60
68235;DHT22;55052;52.056;5.296;2022-10-16T13:12:23;18.90;66.10
68235;DHT22;55052;52.056;5.296;2022-10-16T13:15:01;18.90;66.30
68235;DHT22;55052;52.056;5.296;2022-10-16T13:17:52;19.00;66.50
68235;DHT22;55052;52.056;5.296;2022-10-16T13:20:30;19.00;66.20
68235;DHT22;55052;52.056;5.296;2022-10-16T13:23:09;19.10;66.60
68235;DHT22;55052;52.056;5.296;2022-10-16T13:28:20;19.10;65.70
68235;DHT22;55052;52.056;5.296;2022-10-16T13:30:52;19.10;65.60
68235;DHT22;55052;52.056;5.296;2022-10-16T13:33:38;19.10;65.20
68235;DHT22;55052;52.056;5.296;2022-10-16T13:36:06;19.20;64.20
68235;DHT22;55052;52.056;5.296;2022-10-16T13:38:35;19.20;64.90
68235;DHT22;55052;52.056;5.296;2022-10-16T13:41:14;19.20;65.00
68235;DHT22;55052;52.056;5.296;2022-10-16T13:43:52;19.20;64.00
68235;DHT22;55052;52.056;5.296;2022-10-16T13:46:21;19.10;63.70
68235;DHT22;55052;52.056;5.296;2022-10-16T13:49:03;19.10;64.70
68235;DHT22;55052;52.056;5.296;2022-10-16T13:51:32;19.20;64.20
68235;DHT22;55052;52.056;5.296;2022-10-16T13:53:59;19.10;64.10
68235;DHT22;55052;52.056;5.296;2022-10-16T13:56:28;19.10;64.30
68235;DHT22;55052;52.056;5.296;2022-10-16T13:59:03;19.10;64.60
68235;DHT22;55052;52.056;5.296;2022-10-16T14:01:34;19.10;64.90
68235;DHT22;55052;52.056;5.296;2022-10-16T14:04:07;19.10;65.00
68235;DHT22;55052;52.056;5.296;2022-10-16T14:06:36;19.10;64.60
68235;DHT22;55052;52.056;5.296;2022-10-16T14:09:22;19.10;64.70
68235;DHT22;55052;52.056;5.296;2022-10-16T14:11:53;19.10;64.90
68235;DHT22;55052;52.056;5.296;2022-10-16T14:14:20;19.10;65.10
68235;DHT22;55052;52.056;5.296;2022-10-16T14:16:48;19.10;65.00
68235;DHT22;55052;52.056;5.296;2022-10-16T14:19:26;19.10;64.40
68235;DHT22;55052;52.056;5.296;2022-10-16T14:21:54;19.00;63.70
68235;DHT22;55052;52.056;5.296;2022-10-16T14:26:58;19.00;64.10
68235;DHT22;55052;52.056;5.296;2022-10-16T14:29:26;19.00;64.80
68235;DHT22;55052;52.056;5.296;2022-10-16T14:32:02;19.00;64.70
68235;DHT22;55052;52.056;5.296;2022-10-16T14:34:52;19.00;64.10
68235;DHT22;55052;52.056;5.296;2022-10-16T14:37:27;19.00;64.30
68235;DHT22;55052;52.056;5.296;2022-10-16T14:39:55;19.00;64.80
68235;DHT22;55052;52.056;5.296;2022-10-16T14:42:23;19.00;65.00
68235;DHT22;55052;52.056;5.296;2022-10-16T14:44:52;19.00;65.50
68235;DHT22;55052;52.056;5.296;2022-10-16T14:47:21;19.10;65.90
68235;DHT22;55052;52.056;5.296;2022-10-16T14:49:52;19.10;66.30
68235;DHT22;55052;52.056;5.296;2022-10-16T14:52:22;19.10;66.60
68235;DHT22;55052;52.056;5.296;2022-10-16T14:54:49;19.10;66.40
68235;DHT22;55052;52.056;5.296;2022-10-16T14:57:22;19.10;66.90
68235;DHT22;55052;52.056;5.296;2022-10-16T14:59:50;19.10;66.90
68235;DHT22;55052;52.056;5.296;2022-10-16T15:04:56;19.10;67.40
68235;DHT22;55052;52.056;5.296;2022-10-16T15:07:23;19.10;67.80
68235;DHT22;55052;52.056;5.296;2022-10-16T15:09:50;19.10;68.50
68235;DHT22;55052;52.056;5.296;2022-10-16T15:12:18;19.10;67.90
68235;DHT22;55052;52.056;5.296;2022-10-16T15:14:44;19.10;67.90
68235;DHT22;55052;52.056;5.296;2022-10-16T15:17:11;19.00;68.00
68235;DHT22;55052;52.056;5.296;2022-10-16T15:19:38;19.10;68.20
68235;DHT22;55052;52.056;5.296;2022-10-16T15:22:05;19.10;68.70
68235;DHT22;55052;52.056;5.296;2022-10-16T15:24:31;19.00;68.80
68235;DHT22;55052;52.056;5.296;2022-10-16T15:26:58;19.10;69.20
68235;DHT22;55052;52.056;5.296;2022-10-16T15:29:25;19.00;69.40
68235;DHT22;55052;52.056;5.296;2022-10-16T15:31:51;19.00;69.60
68235;DHT22;55052;52.056;5.296;2022-10-16T15:34:18;19.00;70.00
68235;DHT22;55052;52.056;5.296;2022-10-16T15:36:46;18.90;69.90
68235;DHT22;55052;52.056;5.296;2022-10-16T15:39:15;18.90;70.00
68235;DHT22;55052;52.056;5.296;2022-10-16T15:41:43;18.90;70.30
68235;DHT22;55052;52.056;5.296;2022-10-16T15:44:09;18.80;70.50
68235;DHT22;55052;52.056;5.296;2022-10-16T15:46:36;18.70;70.80
68235;DHT22;55052;52.056;5.296;2022-10-16T15:49:03;18.70;71.20
68235;DHT22;55052;52.056;5.296;2022-10-16T15:51:30;18.70;71.40
68235;DHT22;55052;52.056;5.296;2022-10-16T15:53:59;18.60;71.70
68235;DHT22;55052;52.056;5.296;2022-10-16T15:56:28;18.60;71.90
68235;DHT22;55052;52.056;5.296;2022-10-16T15:58:55;18.50;72.10
68235;DHT22;55052;52.056;5.296;2022-10-16T16:01:23;18.50;72.30
68235;DHT22;55052;52.056;5.296;2022-10-16T16:03:53;18.40;72.50
68235;DHT22;55052;52.056;5.296;2022-10-16T16:06:21;18.40;72.70
68235;DHT22;55052;52.056;5.296;2022-10-16T16:08:48;18.30;72.80
68235;DHT22;55052;52.056;5.296;2022-10-16T16:11:15;18.30;72.90
68235;DHT22;55052;52.056;5.296;2022-10-16T16:13:43;18.20;72.90
68235;DHT22;55052;52.056;5.296;2022-10-16T16:16:12;18.20;73.10
68235;DHT22;55052;52.056;5.296;2022-10-16T16:18:39;18.10;73.10
68235;DHT22;55052;52.056;5.296;2022-10-16T16:21:06;18.10;73.30
68235;DHT22;55052;52.056;5.296;2022-10-16T16:23:33;18.00;73.50
68235;DHT22;55052;52.056;5.296;2022-10-16T16:26:11;18.00;73.60
68235;DHT22;55052;52.056;5.296;2022-10-16T16:28:40;18.00;73.70
68235;DHT22;55052;52.056;5.296;2022-10-16T16:31:07;17.90;73.80
68235;DHT22;55052;52.056;5.296;2022-10-16T16:33:34;17.80;73.80
68235;DHT22;55052;52.056;5.296;2022-10-16T16:36:02;17.80;73.90
68235;DHT22;55052;52.056;5.296;2022-10-16T16:38:30;17.70;74.00
68235;DHT22;55052;52.056;5.296;2022-10-16T16:40:58;17.70;74.10
68235;DHT22;55052;52.056;5.296;2022-10-16T16:43:25;17.60;74.20
68235;DHT22;55052;52.056;5.296;2022-10-16T16:45:53;17.60;74.20
68235;DHT22;55052;52.056;5.296;2022-10-16T16:48:21;17.50;74.30
68235;DHT22;55052;52.056;5.296;2022-10-16T16:50:47;17.50;74.30
68235;DHT22;55052;52.056;5.296;2022-10-16T16:53:14;17.40;74.40
68235;DHT22;55052;52.056;5.296;2022-10-16T16:55:41;17.40;74.50
68235;DHT22;55052;52.056;5.296;2022-10-16T16:58:07;17.40;74.50
68235;DHT22;55052;52.056;5.296;2022-10-16T17:00:34;17.30;74.70
68235;DHT22;55052;52.056;5.296;2022-10-16T17:03:01;17.20;74.70
68235;DHT22;55052;52.056;5.296;2022-10-16T17:05:28;17.20;74.80
68235;DHT22;55052;52.056;5.296;2022-10-16T17:07:55;17.20;75.80
68235;DHT22;55052;52.056;5.296;2022-10-16T17:10:21;17.10;75.00
68235;DHT22;55052;52.056;5.296;2022-10-16T17:12:48;17.10;75.10
68235;DHT22;55052;52.056;5.296;2022-10-16T17:15:15;17.00;75.10
68235;DHT22;55052;52.056;5.296;2022-10-16T17:17:41;17.00;75.30
68235;DHT22;55052;52.056;5.296;2022-10-16T17:20:08;17.00;75.40
68235;DHT22;55052;52.056;5.296;2022-10-16T17:22:36;16.90;75.40
68235;DHT22;55052;52.056;5.296;2022-10-16T17:25:03;16.90;75.40
68235;DHT22;55052;52.056;5.296;2022-10-16T17:27:30;16.80;75.40
68235;DHT22;55052;52.056;5.296;2022-10-16T17:29:57;16.80;75.40